Time;durP1;ratioP1;P1;durP2;ratioP2;P2;SDS_P1;SDS_P2;PMS_P1;PMS_P2;Temp;Humidity;BMP_temperature;BMP_pressure;BME280_temperature;BME280_humidity;BME280_pressure;Samples;Min_cycle;Max_cycle;Signal;HPM_P1;HPM_P2
2023/09/04 00:01:27;;;;;;;;;;;;;;;18.29;50.67;102688.88;5015067;28;124050;-68
2023/09/04 00:03:54;;;;;;;;;;;;;;;18.25;50.81;102681.88;5026153;27;114657;-65
2023/09/04 00:06:21;;;;;;;;;;;;;;;18.20;50.83;102689.31;4998510;28;112747;-66
2023/09/04 00:08:48;;;;;;;;;;;;;;;18.16;50.83;102690.38;5020532;27;125296;-66
2023/09/04 00:11:15;;;;;;;;;;;;;;;18.11;50.94;102684.38;5029404;27;124631;-66
2023/09/04 00:13:42;;;;;;;;;;;;;;;18.08;50.79;102680.91;5028159;27;115491;-66
2023/09/04 00:16:09;;;;;;;;;;;;;;;18.05;50.87;102681.03;5029464;27;114671;-66
2023/09/04 00:18:36;;;;;;;;;;;;;;;18.01;51.02;102684.81;5027345;28;124417;-65
2023/09/04 00:21:03;;;;;;;;;;;;;;;17.99;50.97;102680.44;5030665;27;124503;-65
2023/09/04 00:23:30;;;;;;;;;;;;;;;17.94;51.02;102680.66;5028375;27;115358;-66
2023/09/04 00:25:57;;;;;;;;;;;;;;;17.89;51.04;102680.91;5035509;27;113755;-66
2023/09/04 00:28:25;;;;;;;;;;;;;;;17.86;50.92;102680.16;5012774;28;123319;-65
2023/09/04 00:30:53;;;;;;;;;;;;;;;17.84;51.15;102688.28;5011785;28;123731;-65
2023/09/04 00:33:20;;;;;;;;;;;;;;;17.81;50.90;102687.50;5008224;28;114075;-65
2023/09/04 00:35:47;;;;;;;;;;;;;;;17.78;51.10;102682.28;5029061;27;113166;-66
2023/09/04 00:38:14;;;;;;;;;;;;;;;17.76;51.27;102679.66;5030481;27;124243;-66
2023/09/04 00:40:41;;;;;;;;;;;;;;;17.74;51.13;102681.56;5027117;27;123253;-66
2023/09/04 00:43:08;;;;;;;;;;;;;;;17.71;51.23;102677.22;5016964;28;113335;-65
2023/09/04 00:45:35;;;;;;;;;;;;;;;17.70;51.11;102679.97;5029156;27;114274;-65
2023/09/04 00:48:03;;;;;;;;;;;;;;;17.67;51.18;102680.97;5022156;27;123544;-65
2023/09/04 00:50:30;;;;;;;;;;;;;;;17.66;51.21;102684.59;5021805;28;123129;-65
2023/09/04 00:53:02;;;;;;;;;;;;;;;17.65;51.32;102681.97;5015602;28;113706;-65
2023/09/04 00:55:29;;;;;;;;;;;;;;;17.64;51.52;102686.47;5013919;27;113021;-65
2023/09/04 00:57:56;;;;;;;;;;;;;;;17.63;51.17;102684.75;5005752;28;122892;-65
2023/09/04 01:00:27;;;;;;;;;;;;;;;17.61;51.14;102681.25;5011487;28;123011;-65
2023/09/04 01:02:56;;;;;;;;;;;;;;;17.59;51.21;102677.75;5006661;28;116440;-65
2023/09/04 01:05:25;;;;;;;;;;;;;;;17.57;51.26;102674.28;5032075;27;114851;-65
2023/09/04 01:07:52;;;;;;;;;;;;;;;17.56;51.26;102677.91;5008080;28;123344;-66
2023/09/04 01:10:19;;;;;;;;;;;;;;;17.55;51.20;102670.81;5008498;27;123268;-65
2023/09/04 01:13:02;;;;;;;;;;;;;;;17.52;51.19;102674.50;5027296;27;114571;-67
2023/09/04 01:15:29;;;;;;;;;;;;;;;17.48;51.26;102664.88;5008943;28;113563;-66
2023/09/04 01:17:57;;;;;;;;;;;;;;;17.46;51.20;102666.75;5011538;28;123168;-66
2023/09/04 01:20:26;;;;;;;;;;;;;;;17.42;51.23;102667.84;5026299;27;123412;-65
2023/09/04 01:22:57;;;;;;;;;;;;;;;17.41;51.31;102670.56;5029710;27;114605;-66
2023/09/04 01:25:30;;;;;;;;;;;;;;;17.38;51.29;102668.03;5009094;28;113330;-66
2023/09/04 01:28:09;;;;;;;;;;;;;;;17.36;51.27;102665.41;5019339;28;123256;-66
2023/09/04 01:31:15;;;;;;;;;;;;;;;17.32;51.33;102662.00;5012341;28;123104;-66
2023/09/04 01:33:49;;;;;;;;;;;;;;;17.30;51.39;102658.50;4961442;28;114399;-65
2023/09/04 01:36:17;;;;;;;;;;;;;;;17.28;51.42;102663.06;4959618;28;113593;-66
2023/09/04 01:38:45;;;;;;;;;;;;;;;17.26;51.52;102664.94;4997453;28;124457;-66
2023/09/04 01:41:12;;;;;;;;;;;;;;;17.23;51.42;102665.06;5025727;27;124425;-66
2023/09/04 01:43:40;;;;;;;;;;;;;;;17.22;51.33;102668.69;5028924;27;114466;-66
2023/09/04 01:46:07;;;;;;;;;;;;;;;17.19;51.56;102668.81;5030409;28;114030;-67
2023/09/04 01:48:35;;;;;;;;;;;;;;;17.16;51.57;102663.63;5015384;27;123403;-66
2023/09/04 01:51:02;;;;;;;;;;;;;;;17.14;51.69;102662.81;5013903;28;123482;-66
2023/09/04 01:53:29;;;;;;;;;;;;;;;17.11;51.40;102660.28;5029485;27;115624;-66
2023/09/04 01:55:56;;;;;;;;;;;;;;;17.07;51.39;102664.03;5021011;28;114575;-66
2023/09/04 01:58:23;;;;;;;;;;;;;;;17.05;51.44;102665.91;5014664;28;123430;-65
2023/09/04 02:00:51;;;;;;;;;;;;;;;17.01;51.37;102658.91;5007364;28;123471;-66
2023/09/04 02:03:18;;;;;;;;;;;;;;;16.97;51.54;102658.19;5020506;28;113449;-66
2023/09/04 02:05:45;;;;;;;;;;;;;;;16.93;51.68;102657.47;5013799;28;113113;-66
2023/09/04 02:08:12;;;;;;;;;;;;;;;16.92;51.57;102661.06;5013041;28;123310;-66
2023/09/04 02:10:39;;;;;;;;;;;;;;;16.90;51.50;102657.56;5013199;28;123323;-66
2023/09/04 02:13:06;;;;;;;;;;;;;;;16.88;51.67;102656.78;5030463;28;114591;-66
2023/09/04 02:15:34;;;;;;;;;;;;;;;16.86;51.69;102653.28;5012882;28;113199;-66
2023/09/04 02:18:04;;;;;;;;;;;;;;;16.84;51.60;102648.94;5010418;28;123338;-65
2023/09/04 02:20:31;;;;;;;;;;;;;;;16.82;51.81;102649.00;5028764;27;123987;-66
2023/09/04 02:22:58;;;;;;;;;;;;;;;16.81;51.61;102646.38;5030895;27;114856;-66
2023/09/04 02:25:25;;;;;;;;;;;;;;;16.80;51.82;102650.84;5031444;27;114267;-66
2023/09/04 02:27:53;;;;;;;;;;;;;;;16.79;51.73;102649.09;5014758;27;123278;-67
2023/09/04 02:30:21;;;;;;;;;;;;;;;16.79;51.79;102649.09;5029628;27;124321;-67
2023/09/04 02:32:48;;;;;;;;;;;;;;;16.77;51.73;102644.75;5013067;27;114513;-67
2023/09/04 02:35:16;;;;;;;;;;;;;;;16.76;51.82;102649.22;5028779;27;114021;-68
2023/09/04 02:37:43;;;;;;;;;;;;;;;16.75;51.81;102652.84;5028989;27;125687;-66
2023/09/04 02:40:11;;;;;;;;;;;;;;;16.76;51.78;102648.34;5011947;28;123421;-65
2023/09/04 02:42:38;;;;;;;;;;;;;;;16.74;51.76;102651.09;5029778;28;116056;-67
2023/09/04 02:45:06;;;;;;;;;;;;;;;16.71;51.63;102651.25;5029477;27;113594;-66
2023/09/04 02:47:35;;;;;;;;;;;;;;;16.69;51.91;102653.13;5011544;28;123049;-66
2023/09/04 02:50:04;;;;;;;;;;;;;;;16.66;51.70;102648.75;5037576;27;123913;-65
2023/09/04 02:52:32;;;;;;;;;;;;;;;16.64;51.93;102655.97;5032619;27;114956;-65
2023/09/04 02:54:59;;;;;;;;;;;;;;;16.63;51.94;102650.66;5016832;27;113309;-66
2023/09/04 02:57:28;;;;;;;;;;;;;;;16.61;51.84;102644.50;5020732;28;123290;-65
2023/09/04 02:59:55;;;;;;;;;;;;;;;16.60;51.90;102637.44;5031365;28;124736;-66
2023/09/04 03:02:24;;;;;;;;;;;;;;;16.59;52.03;102641.03;5032844;27;114892;-65
2023/09/04 03:04:54;;;;;;;;;;;;;;;16.59;52.01;102641.03;5028705;27;113975;-65
2023/09/04 03:07:27;;;;;;;;;;;;;;;16.59;52.06;102641.91;5013026;28;123374;-65
2023/09/04 03:09:55;;;;;;;;;;;;;;;16.61;52.05;102649.88;5014198;28;123436;-66
2023/09/04 03:12:26;;;;;;;;;;;;;;;16.63;52.05;102642.66;5012494;28;113758;-66
2023/09/04 03:14:54;;;;;;;;;;;;;;;16.63;52.05;102642.66;5022605;27;114264;-66
2023/09/04 03:17:21;;;;;;;;;;;;;;;16.62;51.97;102635.56;5011225;28;123420;-65
2023/09/04 03:19:52;;;;;;;;;;;;;;;16.64;52.11;102633.69;5013501;28;123100;-65
2023/09/04 03:22:23;;;;;;;;;;;;;;;16.64;52.23;102633.69;5031754;27;114639;-66
2023/09/04 03:24:50;;;;;;;;;;;;;;;16.66;52.12;102638.03;5010527;28;112081;-66
2023/09/04 03:27:19;;;;;;;;;;;;;;;16.65;52.21;102635.41;5011361;28;123874;-65
2023/09/04 03:29:46;;;;;;;;;;;;;;;16.66;52.07;102632.69;5013392;28;123169;-65
2023/09/04 03:32:14;;;;;;;;;;;;;;;16.69;52.23;102631.72;5032269;27;114679;-65
2023/09/04 03:34:42;;;;;;;;;;;;;;;16.69;52.18;102626.34;5030668;27;114973;-66
2023/09/04 03:37:09;;;;;;;;;;;;;;;16.70;52.31;102620.06;5027530;28;124278;-67
2023/09/04 03:39:37;;;;;;;;;;;;;;;16.70;52.11;102618.25;5009283;28;123250;-65
2023/09/04 03:42:05;;;;;;;;;;;;;;;16.70;52.26;102612.03;5005452;28;113572;-65
2023/09/04 03:44:32;;;;;;;;;;;;;;;16.70;52.08;102612.03;5013719;28;114442;-65
2023/09/04 03:46:59;;;;;;;;;;;;;;;16.70;52.36;102607.53;5029471;27;123444;-65
2023/09/04 03:49:26;;;;;;;;;;;;;;;16.71;52.22;102608.44;5029434;27;125004;-66
2023/09/04 03:51:53;;;;;;;;;;;;;;;16.72;52.31;102615.50;5031989;27;114884;-66
2023/09/04 03:54:22;;;;;;;;;;;;;;;16.73;52.39;102606.56;5021888;28;112988;-65
2023/09/04 03:56:50;;;;;;;;;;;;;;;16.74;52.16;102608.28;5018900;28;123243;-65
2023/09/04 03:59:18;;;;;;;;;;;;;;;16.74;51.95;102608.28;5029891;28;125117;-66
2023/09/04 04:01:45;;;;;;;;;;;;;;;16.75;52.27;102610.03;5030632;28;114576;-66
2023/09/04 04:04:12;;;;;;;;;;;;;;;16.74;52.20;102608.28;5008027;28;112886;-66
2023/09/04 04:06:39;;;;;;;;;;;;;;;16.75;52.21;102599.34;5006225;28;123493;-66
2023/09/04 04:09:07;;;;;;;;;;;;;;;16.73;52.18;102602.06;5011898;28;123585;-66
2023/09/04 04:11:35;;;;;;;;;;;;;;;16.73;52.25;102606.56;5027609;27;113792;-66
2023/09/04 04:14:02;;;;;;;;;;;;;;;16.71;52.36;102598.59;5017240;28;114194;-66
2023/09/04 04:16:34;;;;;;;;;;;;;;;16.69;52.39;102600.47;5011860;28;123356;-67
2023/09/04 04:19:02;;;;;;;;;;;;;;;16.68;52.19;102603.19;4998374;27;123129;-67
2023/09/04 04:21:29;;;;;;;;;;;;;;;16.68;52.47;102605.88;5010912;28;116040;-67
2023/09/04 04:23:56;;;;;;;;;;;;;;;16.65;52.35;102597.97;5029645;27;114932;-67
2023/09/04 04:26:23;;;;;;;;;;;;;;;16.62;52.18;102600.78;5011602;27;124655;-67
2023/09/04 04:28:50;;;;;;;;;;;;;;;16.60;52.20;102600.00;5028281;28;124908;-67
2023/09/04 04:31:17;;;;;;;;;;;;;;;16.58;52.31;102599.19;5011118;28;114171;-67
2023/09/04 04:33:44;;;;;;;;;;;;;;;16.58;52.31;102593.84;5028896;27;114314;-67
2023/09/04 04:36:11;;;;;;;;;;;;;;;16.57;52.27;102600.97;5011649;28;123710;-67
2023/09/04 04:38:39;;;;;;;;;;;;;;;16.57;52.49;102600.09;5014445;28;125485;-67
2023/09/04 04:41:07;;;;;;;;;;;;;;;16.53;52.34;102600.22;5009983;28;113335;-67
2023/09/04 04:43:36;;;;;;;;;;;;;;;16.52;52.30;102605.66;5010083;28;112988;-67
2023/09/04 04:46:04;;;;;;;;;;;;;;;16.49;52.41;102603.97;4998208;28;123815;-67
2023/09/04 04:48:31;;;;;;;;;;;;;;;16.49;52.51;102608.47;5012090;28;122811;-67
2023/09/04 04:50:58;;;;;;;;;;;;;;;16.47;52.48;102603.16;5029711;27;114528;-67
2023/09/04 04:53:26;;;;;;;;;;;;;;;16.46;52.63;102601.44;5017634;28;112840;-67
2023/09/04 04:55:53;;;;;;;;;;;;;;;16.44;52.75;102600.59;5011061;28;123650;-67
2023/09/04 04:58:21;;;;;;;;;;;;;;;16.43;52.73;102598.88;5005020;28;123278;-67
2023/09/04 05:00:48;;;;;;;;;;;;;;;16.43;52.71;102598.88;5035996;27;113497;-67
2023/09/04 05:03:16;;;;;;;;;;;;;;;16.43;52.79;102593.53;5029253;27;112748;-67
2023/09/04 05:05:45;;;;;;;;;;;;;;;16.45;52.71;102606.84;4999074;27;123733;-67
2023/09/04 05:08:12;;;;;;;;;;;;;;;16.46;52.74;102601.44;5008650;28;123074;-67
2023/09/04 05:10:40;;;;;;;;;;;;;;;16.47;52.84;102594.28;5009759;28;115118;-67
2023/09/04 05:13:08;;;;;;;;;;;;;;;16.48;52.69;102590.66;5025681;27;113743;-66
2023/09/04 05:15:35;;;;;;;;;;;;;;;16.50;52.92;102588.78;5024598;28;124489;-67
2023/09/04 05:18:03;;;;;;;;;;;;;;;16.51;52.88;102586.06;5020502;27;124419;-66
2023/09/04 05:20:31;;;;;;;;;;;;;;;16.53;52.73;102589.53;5015714;28;113819;-67
2023/09/04 05:22:58;;;;;;;;;;;;;;;16.57;52.71;102589.41;5031154;27;113952;-67
2023/09/04 05:25:28;;;;;;;;;;;;;;;16.57;52.74;102584.06;5012096;28;123449;-66
2023/09/04 05:27:55;;;;;;;;;;;;;;;16.57;52.81;102594.75;5015140;27;123459;-66
2023/09/04 05:30:22;;;;;;;;;;;;;;;16.58;52.74;102591.16;5003057;28;113636;-66
2023/09/04 05:32:52;;;;;;;;;;;;;;;16.58;52.70;102591.16;5032052;27;113007;-67
2023/09/04 05:35:19;;;;;;;;;;;;;;;16.57;52.83;102584.06;5031103;28;123930;-67
2023/09/04 05:37:46;;;;;;;;;;;;;;;16.58;52.90;102596.50;5011368;28;122755;-67
2023/09/04 05:40:13;;;;;;;;;;;;;;;16.59;52.88;102598.22;5026198;27;114642;-67
2023/09/04 05:42:41;;;;;;;;;;;;;;;16.60;52.91;102590.16;5033625;27;114300;-67
2023/09/04 05:45:09;;;;;;;;;;;;;;;16.63;52.91;102587.34;5017790;28;124605;-67
2023/09/04 05:47:36;;;;;;;;;;;;;;;16.66;52.89;102589.88;5032300;27;123994;-67
2023/09/04 05:50:03;;;;;;;;;;;;;;;16.69;53.17;102583.56;5030319;27;115248;-67
2023/09/04 05:52:30;;;;;;;;;;;;;;;16.71;52.91;102576.31;5034148;28;114056;-67
2023/09/04 05:54:57;;;;;;;;;;;;;;;16.76;53.16;102585.00;5033271;27;124824;-67
2023/09/04 05:57:24;;;;;;;;;;;;;;;16.81;53.26;102593.72;5029452;27;124255;-68
2023/09/04 05:59:52;;;;;;;;;;;;;;;16.85;53.10;102595.34;5032176;27;115934;-67
2023/09/04 06:02:19;;;;;;;;;;;;;;;16.93;53.21;102598.56;5016053;28;115004;-66
2023/09/04 06:04:46;;;;;;;;;;;;;;;17.02;53.32;102596.41;5029398;28;124956;-66
2023/09/04 06:07:15;;;;;;;;;;;;;;;17.12;53.52;102597.72;5032698;27;124281;-66
2023/09/04 06:09:44;;;;;;;;;;;;;;;17.23;53.55;102600.81;5033228;27;114102;-66
2023/09/04 06:12:13;;;;;;;;;;;;;;;17.34;53.30;102596.78;5031267;27;113580;-66
2023/09/04 06:14:43;;;;;;;;;;;;;;;17.43;53.40;102596.38;5033142;27;123804;-66
2023/09/04 06:17:11;;;;;;;;;;;;;;;17.53;53.49;102592.31;5030525;28;123833;-66
2023/09/04 06:19:40;;;;;;;;;;;;;;;17.63;53.28;102588.28;5004892;28;113886;-66
2023/09/04 06:22:08;;;;;;;;;;;;;;;17.73;53.47;102593.22;5018940;27;113922;-63
2023/09/04 06:24:37;;;;;;;;;;;;;;;17.83;53.58;102594.50;5011759;28;123525;-66
2023/09/04 06:27:06;;;;;;;;;;;;;;;17.93;53.43;102585.09;5016202;28;124089;-66
2023/09/04 06:29:36;;;;;;;;;;;;;;;18.06;53.58;102586.25;5021636;27;113615;-66
2023/09/04 06:32:07;;;;;;;;;;;;;;;18.19;53.53;102580.28;5014957;27;113685;-66
2023/09/04 06:34:38;;;;;;;;;;;;;;;18.32;53.62;102586.75;5012980;28;124343;-67
2023/09/04 06:37:09;;;;;;;;;;;;;;;18.45;53.63;102587.88;5006934;28;124894;-66
2023/09/04 06:39:41;;;;;;;;;;;;;;;18.60;53.77;102586.25;5024875;27;114600;-66
2023/09/04 06:42:09;;;;;;;;;;;;;;;18.76;53.58;102580.06;5011961;27;114198;-66
2023/09/04 06:44:37;;;;;;;;;;;;;;;18.92;53.62;102577.50;5012387;28;123510;-66
2023/09/04 06:47:04;;;;;;;;;;;;;;;19.09;53.76;102577.47;5014186;27;123710;-66
2023/09/04 06:49:31;;;;;;;;;;;;;;;19.30;53.73;102574.59;5029555;27;115431;-66
2023/09/04 06:51:59;;;;;;;;;;;;;;;19.48;53.77;102568.22;5031395;28;115025;-67
2023/09/04 06:54:26;;;;;;;;;;;;;;;19.69;53.79;102570.66;5013052;28;123243;-66
2023/09/04 06:56:54;;;;;;;;;;;;;;;19.87;53.78;102569.63;5015230;27;124336;-66
2023/09/04 06:59:21;;;;;;;;;;;;;;;20.06;53.77;102563.19;5011233;27;114643;-66
2023/09/04 07:01:48;;;;;;;;;;;;;;;20.25;53.78;102555.81;5011245;28;113789;-66
2023/09/04 07:04:15;;;;;;;;;;;;;;;20.44;53.78;102558.28;5027454;27;124248;-66
2023/09/04 07:06:42;;;;;;;;;;;;;;;20.65;53.66;102560.69;5027344;28;124294;-66
2023/09/04 07:09:10;;;;;;;;;;;;;;;20.79;53.50;102569.66;5031014;27;114644;-68
2023/09/04 07:11:37;;;;;;;;;;;;;;;20.93;53.57;102570.63;5028642;27;114001;-66
2023/09/04 07:14:04;;;;;;;;;;;;;;;21.05;53.45;102575.25;5027963;27;124426;-66
2023/09/04 07:16:37;;;;;;;;;;;;;;;21.17;53.41;102577.19;5004893;28;123159;-66
2023/09/04 07:19:16;;;;;;;;;;;;;;;21.36;53.54;102578.72;5029111;27;114624;-66
2023/09/04 07:21:43;;;;;;;;;;;;;;;21.49;53.40;102579.72;5031694;27;113697;-66
2023/09/04 07:24:10;;;;;;;;;;;;;;;21.63;53.34;102580.66;5011812;28;124101;-66
2023/09/04 07:26:37;;;;;;;;;;;;;;;21.73;53.15;102588.03;5027533;27;124672;-66
2023/09/04 07:29:04;;;;;;;;;;;;;;;21.83;53.15;102588.34;5030883;28;114677;-66
2023/09/04 07:31:31;;;;;;;;;;;;;;;21.95;53.18;102582.13;5031537;27;113791;-66
2023/09/04 07:33:58;;;;;;;;;;;;;;;22.08;53.08;102592.13;5021164;28;124729;-66
2023/09/04 07:36:25;;;;;;;;;;;;;;;22.17;53.03;102596.91;5026737;27;124905;-66
2023/09/04 07:38:52;;;;;;;;;;;;;;;22.27;52.96;102587.25;5028018;27;115868;-67
2023/09/04 07:41:19;;;;;;;;;;;;;;;22.35;53.01;102584.88;5012379;28;113980;-66
2023/09/04 07:43:46;;;;;;;;;;;;;;;22.46;53.13;102591.41;5028133;27;125112;-66
2023/09/04 07:46:13;;;;;;;;;;;;;;;22.56;52.95;102589.81;5024159;27;122920;-66
2023/09/04 07:48:40;;;;;;;;;;;;;;;22.67;52.97;102587.25;5030287;27;114297;-67
2023/09/04 07:51:08;;;;;;;;;;;;;;;22.79;52.84;102584.66;5008834;28;113495;-66
2023/09/04 07:53:53;;;;;;;;;;;;;;;22.92;53.01;102580.13;5027165;27;124463;-67
2023/09/04 07:56:22;;;;;;;;;;;;;;;23.03;52.87;102579.38;5036224;27;123935;-67
2023/09/04 07:58:51;;;;;;;;;;;;;;;23.13;52.88;102581.38;5029744;27;114556;-66
2023/09/04 08:01:18;;;;;;;;;;;;;;;23.25;52.93;102573.38;5016540;28;112976;-67
2023/09/04 08:03:45;;;;;;;;;;;;;;;23.35;52.74;102568.16;5031060;27;124450;-66
2023/09/04 08:06:12;;;;;;;;;;;;;;;23.42;52.69;102564.91;5028214;27;124315;-68
2023/09/04 08:08:39;;;;;;;;;;;;;;;23.54;52.78;102567.69;5029029;27;114910;-66
2023/09/04 08:11:06;;;;;;;;;;;;;;;23.66;52.73;102572.22;5029937;27;113797;-66
2023/09/04 08:13:33;;;;;;;;;;;;;;;23.74;52.38;102569.78;5028639;27;124413;-66
2023/09/04 08:15:59;;;;;;;;;;;;;;;23.80;52.47;102574.78;5029480;28;125626;-66
2023/09/04 08:18:26;;;;;;;;;;;;;;;23.92;52.52;102580.25;5031544;27;114736;-66
2023/09/04 08:20:53;;;;;;;;;;;;;;;24.04;52.63;102582.91;5029987;27;113775;-66
2023/09/04 08:23:20;;;;;;;;;;;;;;;24.13;52.35;102575.97;5029788;28;124736;-67
2023/09/04 08:25:56;;;;;;;;;;;;;;;24.22;52.21;102575.28;5028523;27;124470;-66
2023/09/04 08:28:23;;;;;;;;;;;;;;;24.33;52.47;102571.72;5030321;27;116605;-66
2023/09/04 08:30:50;;;;;;;;;;;;;;;24.43;52.40;102577.28;5029236;27;115384;-66
2023/09/04 08:33:17;;;;;;;;;;;;;;;24.53;52.41;102572.94;5028873;27;124396;-67
2023/09/04 08:35:44;;;;;;;;;;;;;;;24.64;52.32;102570.28;5027976;27;124564;-66
2023/09/04 08:38:10;;;;;;;;;;;;;;;24.74;52.04;102574.97;5028644;27;113650;-65
2023/09/04 08:40:41;;;;;;;;;;;;;;;24.80;51.85;102567.22;5028485;27;113968;-66
2023/09/04 08:43:09;;;;;;;;;;;;;;;24.86;52.15;102563.16;5008859;28;124426;-66
2023/09/04 08:45:36;;;;;;;;;;;;;;;24.95;52.22;102557.00;5024729;27;124748;-66
2023/09/04 08:48:03;;;;;;;;;;;;;;;25.03;51.85;102565.44;5027819;27;114887;-67
2023/09/04 08:50:31;;;;;;;;;;;;;;;25.12;52.04;102558.38;5010684;27;113756;-66
2023/09/04 08:52:58;;;;;;;;;;;;;;;25.20;51.69;102555.06;5020718;28;124115;-67
2023/09/04 08:55:26;;;;;;;;;;;;;;;25.25;51.57;102542.03;5031213;28;124066;-67
2023/09/04 08:57:53;;;;;;;;;;;;;;;25.33;52.04;102539.53;5013780;27;114486;-66
2023/09/04 09:00:20;;;;;;;;;;;;;;;25.41;51.62;102547.06;5033596;27;113979;-66
2023/09/04 09:02:49;;;;;;;;;;;;;;;25.48;51.91;102542.00;5032198;27;124166;-66
2023/09/04 09:05:17;;;;;;;;;;;;;;;25.55;51.55;102551.38;5031392;27;124281;-66
2023/09/04 09:07:46;;;;;;;;;;;;;;;25.59;51.46;102550.13;5031238;27;114141;-66
2023/09/04 09:10:16;;;;;;;;;;;;;;;25.69;51.68;102545.66;5015915;28;112782;-67
2023/09/04 09:12:44;;;;;;;;;;;;;;;25.79;51.66;102546.63;5033205;27;124656;-66
2023/09/04 09:15:11;;;;;;;;;;;;;;;25.90;51.33;102547.59;5031332;27;123898;-67
2023/09/04 09:17:49;;;;;;;;;;;;;;;25.98;51.34;102545.13;5030299;28;115623;-66
2023/09/04 09:20:28;;;;;;;;;;;;;;;26.05;51.41;102556.31;5025697;28;115158;-66
2023/09/04 09:22:55;;;;;;;;;;;;;;;26.09;51.24;102547.81;5021239;27;124359;-67
2023/09/04 09:25:23;;;;;;;;;;;;;;;26.15;51.31;102541.84;5014634;27;124325;-66
2023/09/04 09:27:50;;;;;;;;;;;;;;;26.23;51.06;102539.34;5018966;27;112503;-67
2023/09/04 09:30:17;;;;;;;;;;;;;;;26.32;51.01;102536.84;5019752;27;113386;-67
2023/09/04 09:32:45;;;;;;;;;;;;;;;26.40;51.18;102528.88;5009450;28;124434;-66
2023/09/04 09:35:15;;;;;;;;;;;;;;;26.48;50.99;102542.66;5030364;27;124403;-67
2023/09/04 09:37:42;;;;;;;;;;;;;;;26.58;50.82;102538.19;5031708;28;114769;-68
2023/09/04 09:40:09;;;;;;;;;;;;;;;26.68;51.17;102534.69;5028199;28;114226;-67
2023/09/04 09:42:36;;;;;;;;;;;;;;;26.77;50.91;102531.16;5017006;28;123217;-68
2023/09/04 09:45:05;;;;;;;;;;;;;;;26.84;50.75;102531.47;5023602;27;124305;-67
2023/09/04 09:47:32;;;;;;;;;;;;;;;26.93;50.87;102536.09;5022102;28;114774;-68
2023/09/04 09:50:00;;;;;;;;;;;;;;;27.04;51.11;102532.44;5019393;27;114018;-68
2023/09/04 09:52:27;;;;;;;;;;;;;;;27.16;51.02;102536.78;5026863;27;125635;-68
2023/09/04 09:54:54;;;;;;;;;;;;;;;27.25;50.81;102525.09;5025993;27;123717;-66
2023/09/04 09:57:24;;;;;;;;;;;;;;;27.29;50.65;102532.00;5018954;27;114351;-67
2023/09/04 09:59:52;;;;;;;;;;;;;;;27.34;50.45;102535.16;5009285;28;113450;-68
2023/09/04 10:02:20;;;;;;;;;;;;;;;27.38;50.65;102542.03;5029067;27;124456;-68
2023/09/04 10:04:48;;;;;;;;;;;;;;;27.45;50.52;102525.19;5031122;27;124762;-67
2023/09/04 10:07:17;;;;;;;;;;;;;;;27.47;50.14;102523.19;5008318;28;115360;-68
2023/09/04 10:09:45;;;;;;;;;;;;;;;27.49;50.15;102524.75;5034873;27;114704;-68
2023/09/04 10:12:28;;;;;;;;;;;;;;;27.50;49.87;102528.34;5025415;28;124489;-68
2023/09/04 10:14:56;;;;;;;;;;;;;;;27.51;50.16;102519.19;5023279;27;123438;-68
2023/09/04 10:17:32;;;;;;;;;;;;;;;27.57;50.34;102524.91;5013632;27;113100;-67
2023/09/04 10:20:01;;;;;;;;;;;;;;;27.63;50.03;102515.31;4994639;28;112611;-68
2023/09/04 10:22:33;;;;;;;;;;;;;;;27.69;49.97;102512.06;5013260;27;124615;-67
2023/09/04 10:25:04;;;;;;;;;;;;;;;27.76;50.10;102513.22;5023896;27;124997;-68
2023/09/04 10:27:40;;;;;;;;;;;;;;;27.85;49.88;102510.63;5031056;27;114882;-66
2023/09/04 10:30:09;;;;;;;;;;;;;;;27.88;49.79;102515.81;5023650;27;113782;-65
2023/09/04 10:32:36;;;;;;;;;;;;;;;27.92;49.84;102522.72;5010639;27;124675;-65
2023/09/04 10:35:05;;;;;;;;;;;;;;;27.93;49.42;102513.53;5031483;27;124709;-67
2023/09/04 10:37:32;;;;;;;;;;;;;;;27.93;49.58;102513.53;5029625;27;115248;-67
2023/09/04 10:40:00;;;;;;;;;;;;;;;27.94;49.49;102507.09;5015561;28;113970;-67
2023/09/04 10:42:29;;;;;;;;;;;;;;;27.97;49.71;102498.59;5031841;27;125220;-67
2023/09/04 10:44:56;;;;;;;;;;;;;;;28.03;49.60;102503.50;5030810;28;123709;-67
2023/09/04 10:47:23;;;;;;;;;;;;;;;28.06;49.28;102497.75;5026363;27;114617;-67
2023/09/04 10:49:51;;;;;;;;;;;;;;;28.07;49.10;102499.50;5033345;27;114316;-66
2023/09/04 10:52:18;;;;;;;;;;;;;;;28.05;48.89;102490.59;5029499;27;124922;-66
2023/09/04 10:54:45;;;;;;;;;;;;;;;28.04;49.03;102490.75;5024930;27;124457;-66
2023/09/04 10:57:14;;;;;;;;;;;;;;;28.04;48.86;102494.31;5009929;28;114434;-67
2023/09/04 10:59:54;;;;;;;;;;;;;;;28.06;49.02;102492.31;5027166;27;114614;-66
2023/09/04 11:02:27;;;;;;;;;;;;;;;28.09;48.85;102486.59;5028778;28;124306;-66
2023/09/04 11:04:55;;;;;;;;;;;;;;;28.12;48.50;102479.97;5006167;28;122388;-66
2023/09/04 11:07:26;;;;;;;;;;;;;;;28.10;48.30;102482.84;5025617;28;115190;-66
2023/09/04 11:10:17;;;;;;;;;;;;;;;28.10;48.39;102482.84;5022961;27;114216;-66
2023/09/04 11:12:45;;;;;;;;;;;;;;;28.12;48.75;102480.84;5017765;28;125398;-66
2023/09/04 11:15:16;;;;;;;;;;;;;;;28.18;48.83;102478.53;5021222;28;124245;-66
2023/09/04 11:17:49;;;;;;;;;;;;;;;28.25;48.83;102479.69;5008604;28;113672;-67
2023/09/04 11:20:17;;;;;;;;;;;;;;;28.33;48.91;102460.72;5012874;27;112902;-66
2023/09/04 11:22:47;;;;;;;;;;;;;;;28.42;48.63;102472.63;5015388;27;124588;-67
2023/09/04 11:25:15;;;;;;;;;;;;;;;28.46;48.75;102464.00;5030757;27;123901;-66
2023/09/04 11:27:46;;;;;;;;;;;;;;;28.52;48.69;102466.16;5021828;28;115290;-66
2023/09/04 11:30:14;;;;;;;;;;;;;;;28.57;48.42;102451.22;5030782;28;113860;-66
2023/09/04 11:32:41;;;;;;;;;;;;;;;28.59;48.29;102443.75;5030551;27;123235;-67
2023/09/04 11:35:13;;;;;;;;;;;;;;;28.62;48.12;102443.47;5007047;28;122884;-68
2023/09/04 11:37:40;;;;;;;;;;;;;;;28.66;48.38;102444.88;5027352;27;115166;-66
2023/09/04 11:40:08;;;;;;;;;;;;;;;28.71;48.13;102439.84;5014159;28;114571;-66
2023/09/04 11:42:35;;;;;;;;;;;;;;;28.75;48.08;102438.53;5030488;27;124385;-66
2023/09/04 11:45:03;;;;;;;;;;;;;;;28.77;48.06;102452.03;5012042;28;123329;-66
2023/09/04 11:47:30;;;;;;;;;;;;;;;28.79;47.97;102442.69;5027426;28;116235;-67
2023/09/04 11:49:57;;;;;;;;;;;;;;;28.80;47.92;102441.69;5028278;27;114537;-66
2023/09/04 11:52:26;;;;;;;;;;;;;;;28.82;47.79;102439.66;5009151;28;123238;-66
2023/09/04 11:54:53;;;;;;;;;;;;;;;28.84;47.73;102437.63;5028075;27;124127;-66
2023/09/04 11:57:21;;;;;;;;;;;;;;;28.87;47.60;102434.59;5040240;27;114423;-67
2023/09/04 11:59:48;;;;;;;;;;;;;;;28.93;47.59;102436.72;5025128;27;114292;-67
2023/09/04 12:02:15;;;;;;;;;;;;;;;29.01;47.49;102432.38;5026456;27;124676;-66
2023/09/04 12:04:45;;;;;;;;;;;;;;;29.08;47.32;102438.94;5040100;27;96935;-66
2023/09/04 12:07:13;;;;;;;;;;;;;;;29.13;47.33;102420.28;5029500;28;114661;-67
2023/09/04 12:09:41;;;;;;;;;;;;;;;29.16;47.21;102428.16;5030547;28;114219;-67
2023/09/04 12:12:08;;;;;;;;;;;;;;;29.21;47.29;102422.25;5029948;27;124279;-67
2023/09/04 12:14:35;;;;;;;;;;;;;;;29.26;47.24;102426.22;5027702;27;124310;-67
2023/09/04 12:17:08;;;;;;;;;;;;;;;29.31;47.34;102423.91;5026429;28;114347;-67
2023/09/04 12:19:35;;;;;;;;;;;;;;;29.37;47.13;102416.09;5026176;27;113440;-67
2023/09/04 12:22:13;;;;;;;;;;;;;;;29.47;47.48;102411.41;5029790;27;123290;-67
2023/09/04 12:24:57;;;;;;;;;;;;;;;29.58;47.37;102408.47;5006878;28;124335;-67
2023/09/04 12:27:24;;;;;;;;;;;;;;;29.65;47.10;102409.56;5024357;27;114583;-67
2023/09/04 12:29:51;;;;;;;;;;;;;;;29.70;46.95;102409.06;5028946;27;113943;-67
2023/09/04 12:32:21;;;;;;;;;;;;;;;29.73;46.64;102406.06;5029092;27;124261;-67
2023/09/04 12:34:49;;;;;;;;;;;;;;;29.75;46.90;102408.66;5029516;27;124118;-67